nws-alerts: Checking more than four warning/county codes can delay the loading of your pages. You should use a cron job to get the data.
EllijayWeather Station Historical Data
Daily Summary for December 2, 2018 Units:  English    Metric   Both
Daily Weekly Monthly Yearly Custom
  High: Low: Average:
Temperature: 67.5 °F 41.7 °F 58.8 °F
Dew Point: 53.6 °F 25.3 °F 38 °F
Humidity: 74% 32% 48%
Wind Speed: 6mph 0mph 0.2mph
Wind Gust: 10mph - -
Wind- - SSE
Pressure: 29.89 in 29.72 in -
Precipitation: 0.01 in    
Historical Graphs
 
 
Tabular Data for December 2, 2018
Time Temperature Dew Point Pressure Wind Wind Speed Wind Gust Humidity Rainfall Rate (Hourly) solar
00:04 57.4 °F 30.6 °F 29.74 in Calm   2 mph 36% 0 in meteobridge W/m2
00:09 57.2 °F 30.6 °F 29.74 in Calm     36% 0 in meteobridge W/m2
00:14 57.4 °F 30.6 °F 29.75 in Calm   2 mph 36% 0 in meteobridge W/m2
00:19 57.6 °F 30 °F 29.74 in West 2.9 mph 4 mph 35% 0 in meteobridge W/m2
00:24 57.6 °F 30 °F 29.74 in Calm   1 mph 35% 0 in meteobridge W/m2
00:29 57.7 °F 30.2 °F 29.75 in Calm     35% 0 in meteobridge W/m2
00:34 58.3 °F 30.7 °F 29.76 in Calm   1 mph 35% 0 in meteobridge W/m2
00:39 58.8 °F 31.3 °F 29.76 in NE 2.9 mph 3 mph 35% 0 in meteobridge W/m2
00:44 59.5 °F 31.1 °F 29.75 in Calm   3 mph 34% 0 in meteobridge W/m2
00:49 60.4 °F 31.3 °F 29.75 in South 0.9 mph 5 mph 33% 0 in meteobridge W/m2
00:53 61 °F 31.6 °F 29.75 in Calm     33% 0 in meteobridge W/m2
00:59 61.3 °F 32 °F 29.75 in Calm   1 mph 33% 0 in meteobridge W/m2
01:04 61.3 °F 32 °F 29.74 in Calm     33% 0 in meteobridge W/m2
01:09 61.9 °F 31.6 °F 29.74 in Calm     32% 0 in meteobridge W/m2
01:14 61.9 °F 31.6 °F 29.74 in Calm   1 mph 32% 0 in meteobridge W/m2
01:19 62.1 °F 31.8 °F 29.74 in Calm   4 mph 32% 0 in meteobridge W/m2
01:24 62.1 °F 31.8 °F 29.74 in Calm     32% 0 in meteobridge W/m2
01:29 62.1 °F 31.8 °F 29.74 in Calm     32% 0 in meteobridge W/m2
01:34 62.2 °F 32 °F 29.74 in Calm     32% 0 in meteobridge W/m2
01:39 62.2 °F 32 °F 29.74 in ESE 0.9 mph 1 mph 32% 0 in meteobridge W/m2
01:44 62.1 °F 32.5 °F 29.75 in Calm   3 mph 33% 0 in meteobridge W/m2
01:49 62.1 °F 32.5 °F 29.75 in Calm   1 mph 33% 0 in meteobridge W/m2
01:54 61.9 °F 32.5 °F 29.76 in Calm   2 mph 33% 0 in meteobridge W/m2
01:59 61.9 °F 32.5 °F 29.76 in Calm     33% 0 in meteobridge W/m2
02:04 61.9 °F 32.5 °F 29.76 in Calm     33% 0 in meteobridge W/m2
02:09 61.7 °F 33.1 °F 29.77 in Calm   1 mph 34% 0 in meteobridge W/m2
02:14 61.7 °F 33.1 °F 29.76 in Calm   1 mph 34% 0 in meteobridge W/m2
02:19 61.7 °F 33.1 °F 29.76 in Calm   1 mph 34% 0 in meteobridge W/m2
02:24 61.7 °F 33.1 °F 29.76 in Calm   2 mph 34% 0 in meteobridge W/m2
02:29 61.7 °F 33.1 °F 29.76 in Calm     34% 0 in meteobridge W/m2
02:34 61.7 °F 33.1 °F 29.76 in Calm   1 mph 34% 0 in meteobridge W/m2
02:39 61.5 °F 32.9 °F 29.76 in Calm     34% 0 in meteobridge W/m2
02:44 61.5 °F 32.9 °F 29.76 in Calm   1 mph 34% 0 in meteobridge W/m2
02:49 61.3 °F 32.7 °F 29.75 in Calm     34% 0 in meteobridge W/m2
02:54 61.3 °F 32.7 °F 29.75 in Calm     34% 0 in meteobridge W/m2
02:59 61.3 °F 32.7 °F 29.75 in Calm     34% 0 in meteobridge W/m2
03:04 61.3 °F 32.7 °F 29.75 in Calm     34% 0 in meteobridge W/m2
03:09 61.5 °F 32.2 °F 29.75 in Calm     33% 0 in meteobridge W/m2
03:14 61.3 °F 32 °F 29.74 in Calm     33% 0 in meteobridge W/m2
03:19 61.3 °F 32 °F 29.74 in Calm     33% 0 in meteobridge W/m2
03:24 61.2 °F 32.5 °F 29.74 in Calm     34% 0 in meteobridge W/m2
03:29 61.2 °F 31.8 °F 29.74 in Calm     33% 0 in meteobridge W/m2
03:34 61.3 °F 32 °F 29.74 in Calm     33% 0 in meteobridge W/m2
03:39 61.2 °F 31.8 °F 29.74 in Calm     33% 0 in meteobridge W/m2
03:44 61.2 °F 31.8 °F 29.74 in Calm     33% 0 in meteobridge W/m2
03:49 61.2 °F 31.8 °F 29.74 in Calm     33% 0 in meteobridge W/m2
03:54 61.3 °F 32 °F 29.74 in Calm     33% 0 in meteobridge W/m2
03:59 61.2 °F 31.8 °F 29.75 in Calm     33% 0 in meteobridge W/m2
04:04 61.3 °F 32 °F 29.74 in Calm     33% 0 in meteobridge W/m2
04:09 61.3 °F 32 °F 29.74 in Calm     33% 0 in meteobridge W/m2
04:14 61.3 °F 32 °F 29.74 in Calm     33% 0 in meteobridge W/m2
04:19 61.5 °F 32.2 °F 29.74 in Calm     33% 0 in meteobridge W/m2
04:24 61.7 °F 31.5 °F 29.74 in Calm     32% 0 in meteobridge W/m2
04:29 61.9 °F 31.6 °F 29.74 in Calm     32% 0 in meteobridge W/m2
04:34 61.9 °F 31.6 °F 29.75 in Calm     32% 0 in meteobridge W/m2
04:39 61.9 °F 31.6 °F 29.74 in Calm     32% 0 in meteobridge W/m2
04:44 62.1 °F 31.8 °F 29.74 in Calm   1 mph 32% 0 in meteobridge W/m2
04:49 62.1 °F 31.8 °F 29.74 in Calm     32% 0 in meteobridge W/m2
04:54 62.2 °F 32 °F 29.73 in Calm     32% 0 in meteobridge W/m2
04:59 61.9 °F 31.6 °F 29.73 in Calm     32% 0 in meteobridge W/m2
05:04 62.1 °F 31.8 °F 29.72 in Calm     32% 0 in meteobridge W/m2
05:09 62.1 °F 31.8 °F 29.72 in Calm     32% 0 in meteobridge W/m2
05:14 62.2 °F 32 °F 29.72 in Calm     32% 0 in meteobridge W/m2
05:19 62.2 °F 32 °F 29.72 in Calm     32% 0 in meteobridge W/m2
05:24 62.1 °F 31.8 °F 29.72 in Calm     32% 0 in meteobridge W/m2
05:29 62.2 °F 32 °F 29.72 in Calm     32% 0 in meteobridge W/m2
05:34 62.4 °F 32.2 °F 29.72 in Calm     32% 0 in meteobridge W/m2
05:39 62.4 °F 32.2 °F 29.72 in Calm     32% 0 in meteobridge W/m2
05:44 62.4 °F 32.2 °F 29.72 in Calm     32% 0 in meteobridge W/m2
05:49 62.4 °F 32.2 °F 29.72 in Calm     32% 0 in meteobridge W/m2
05:54 62.4 °F 32.2 °F 29.72 in Calm     32% 0.01 in meteobridge W/m2
05:59 62.2 °F 32 °F 29.72 in Calm     32% 0.01 in meteobridge W/m2
06:04 62.2 °F 32 °F 29.72 in Calm     32% 0.01 in meteobridge W/m2
06:09 62.4 °F 32.2 °F 29.72 in Calm     32% 0.01 in meteobridge W/m2
06:14 62.6 °F 32.4 °F 29.73 in Calm   1 mph 32% 0.01 in meteobridge W/m2
06:19 62.1 °F 31.8 °F 29.74 in Calm   1 mph 32% 0.01 in meteobridge W/m2
06:24 61.7 °F 31.5 °F 29.74 in Calm     32% 0.01 in meteobridge W/m2
06:29 61.7 °F 31.5 °F 29.75 in Calm     32% 0.01 in meteobridge W/m2
06:34 61.5 °F 31.5 °F 29.75 in Calm   2 mph 32% 0.01 in meteobridge W/m2
06:39 61.7 °F 31.5 °F 29.75 in Calm   3 mph 32% 0.01 in meteobridge W/m2
06:44 61.7 °F 31.5 °F 29.75 in Calm     32% 0.01 in meteobridge W/m2
06:49 61.5 °F 31.5 °F 29.75 in Calm   3 mph 32% 0 in meteobridge W/m2
06:54 61.5 °F 31.5 °F 29.76 in Calm     32% 0 in meteobridge W/m2
06:59 61.5 °F 31.5 °F 29.76 in Calm     32% 0 in meteobridge W/m2
07:04 61.5 °F 31.5 °F 29.76 in Calm     32% 0 in meteobridge W/m2
07:09 61.3 °F 31.3 °F 29.77 in Calm     32% 0 in meteobridge W/m2
07:14 61.3 °F 31.3 °F 29.76 in Calm     32% 0 in meteobridge W/m2
07:19 61.2 °F 31.1 °F 29.77 in Calm     32% 0 in meteobridge W/m2
07:24 61 °F 30.9 °F 29.77 in Calm     32% 0 in meteobridge W/m2
07:29 60.8 °F 31.5 °F 29.78 in Calm     33% 0 in meteobridge W/m2
07:34 60.6 °F 31.3 °F 29.78 in Calm     33% 0 in meteobridge W/m2
07:39 60.4 °F 31.3 °F 29.79 in Calm     33% 0 in meteobridge W/m2
07:44 60.1 °F 30.9 °F 29.79 in Calm     33% 0 in meteobridge W/m2
07:49 59.9 °F 31.5 °F 29.79 in Calm   1 mph 34% 0 in meteobridge W/m2
07:54 59.7 °F 31.3 °F 29.80 in Calm     34% 0 in meteobridge W/m2
07:59 59.5 °F 31.1 °F 29.80 in Calm     34% 0 in meteobridge W/m2
08:04 59.5 °F 31.1 °F 29.81 in Calm     34% 0 in meteobridge W/m2
08:09 59.5 °F 31.1 °F 29.80 in Calm     34% 0 in meteobridge W/m2
08:14 59.5 °F 31.1 °F 29.80 in Calm     34% 0 in meteobridge W/m2
08:19 59.5 °F 31.1 °F 29.80 in Calm     34% 0 in meteobridge W/m2
08:24 59.4 °F 30.9 °F 29.79 in Calm     34% 0 in meteobridge W/m2
08:29 59.4 °F 30.9 °F 29.79 in Calm     34% 0 in meteobridge W/m2
08:34 59.2 °F 30.7 °F 29.79 in Calm     34% 0 in meteobridge W/m2
08:39 59.2 °F 30.7 °F 29.79 in Calm     34% 0 in meteobridge W/m2
08:44 59.2 °F 30.7 °F 29.79 in Calm     34% 0 in meteobridge W/m2
08:49 59.5 °F 31.1 °F 29.79 in Calm     34% 0 in meteobridge W/m2
08:54 59.5 °F 30.4 °F 29.79 in Calm   1 mph 33% 0 in meteobridge W/m2
08:59 59.7 °F 30.6 °F 29.80 in Calm     33% 0 in meteobridge W/m2
09:04 59.7 °F 30.6 °F 29.80 in Calm     33% 0 in meteobridge W/m2
09:09 59.7 °F 30.6 °F 29.80 in Calm     33% 0 in meteobridge W/m2
09:14 59.5 °F 31.1 °F 29.80 in Calm     34% 0 in meteobridge W/m2
09:19 59.4 °F 32.4 °F 29.80 in Calm     36% 0 in meteobridge W/m2
09:24 59.4 °F 33.8 °F 29.81 in Calm     38% 0 in meteobridge W/m2
09:29 59.2 °F 35.4 °F 29.81 in Calm     41% 0 in meteobridge W/m2
09:34 59.2 °F 36.1 °F 29.81 in Calm     42% 0 in meteobridge W/m2
09:39 59.4 °F 37.4 °F 29.82 in Calm   1 mph 44% 0 in meteobridge W/m2
09:44 59.5 °F 38.7 °F 29.82 in Calm     46% 0 in meteobridge W/m2
09:49 59.9 °F 43.7 °F 29.82 in NNW 4.9 mph 5 mph 55% 0 in meteobridge W/m2
09:54 60.3 °F 44.1 °F 29.82 in Calm     55% 0 in meteobridge W/m2
09:59 60.4 °F 46 °F 29.82 in Calm   1 mph 59% 0 in meteobridge W/m2
10:04 60.6 °F 48 °F 29.81 in Calm     63% 0 in meteobridge W/m2
10:09 60.6 °F 49.3 °F 29.81 in NNE 0.9 mph 1 mph 66% 0 in meteobridge W/m2
10:14 61 °F 51.4 °F 29.82 in Calm   5 mph 71% 0 in meteobridge W/m2
10:19 61.2 °F 51.3 °F 29.81 in Calm   1 mph 70% 0 in meteobridge W/m2
10:24 61.2 °F 51.6 °F 29.82 in Calm     71% 0 in meteobridge W/m2
10:29 61.2 °F 52 °F 29.82 in Calm   2 mph 72% 0 in meteobridge W/m2
10:34 61.3 °F 53.1 °F 29.82 in SE 0.9 mph 1 mph 74% 0 in meteobridge W/m2
10:39 61.3 °F 52.7 °F 29.82 in Calm     73% 0 in meteobridge W/m2
10:44 61.5 °F 52.7 °F 29.82 in NW 0.9 mph 3 mph 73% 0 in meteobridge W/m2
10:49 62.1 °F 53.2 °F 29.82 in Calm     73% 0 in meteobridge W/m2
10:54 62.2 °F 53.1 °F 29.82 in Calm   1 mph 72% 0 in meteobridge W/m2
10:59 62.4 °F 53.6 °F 29.83 in Calm   4 mph 73% 0 in meteobridge W/m2
11:04 62.8 °F 53.6 °F 29.83 in Calm   4 mph 72% 0 in meteobridge W/m2
11:09 63 °F 52.2 °F 29.83 in Calm     68% 0 in meteobridge W/m2
11:14 63 °F 52.7 °F 29.82 in NNW 0.9 mph 5 mph 69% 0 in meteobridge W/m2
11:19 63.1 °F 51.3 °F 29.82 in East 2.9 mph 3 mph 65% 0 in meteobridge W/m2
11:24 63.1 °F 51.3 °F 29.82 in Calm   2 mph 65% 0 in meteobridge W/m2
11:29 63.1 °F 51.3 °F 29.81 in Calm   2 mph 65% 0 in meteobridge W/m2
11:34 63.7 °F 51.6 °F 29.81 in Calm     65% 0 in meteobridge W/m2
11:39 63.9 °F 51.4 °F 29.81 in Calm   1 mph 64% 0 in meteobridge W/m2
11:44 64.4 °F 52 °F 29.81 in Calm   1 mph 64% 0 in meteobridge W/m2
11:49 64.6 °F 52.2 °F 29.81 in Calm   1 mph 64% 0 in meteobridge W/m2
11:54 64.8 °F 51.4 °F 29.81 in Calm   4 mph 62% 0 in meteobridge W/m2
11:59 64.9 °F 50.2 °F 29.81 in Calm   4 mph 59% 0 in meteobridge W/m2
12:04 65.1 °F 50 °F 29.80 in Calm   2 mph 58% 0 in meteobridge W/m2
12:09 65.1 °F 50.9 °F 29.80 in Calm   1 mph 60% 0 in meteobridge W/m2
12:14 65.1 °F 49.5 °F 29.80 in SE 2 mph 6 mph 57% 0 in meteobridge W/m2
12:19 65.5 °F 50.4 °F 29.80 in Calm   2 mph 58% 0 in meteobridge W/m2
12:24 65.5 °F 49.8 °F 29.80 in Calm   1 mph 57% 0 in meteobridge W/m2
12:29 65.1 °F 49.1 °F 29.80 in West 0.9 mph 5 mph 56% 0 in meteobridge W/m2
12:34 65.1 °F 48 °F 29.79 in Calm   1 mph 54% 0 in meteobridge W/m2
12:39 65.1 °F 47.1 °F 29.79 in Calm   3 mph 52% 0 in meteobridge W/m2
12:44 65.3 °F 48.2 °F 29.79 in Calm   1 mph 54% 0 in meteobridge W/m2
12:49 65.5 °F 49.3 °F 29.78 in Calm   2 mph 56% 0 in meteobridge W/m2
12:54 65.7 °F 48.6 °F 29.78 in SSE 0.9 mph 1 mph 54% 0 in meteobridge W/m2
12:59 65.7 °F 47.1 °F 29.78 in Calm   2 mph 51% 0 in meteobridge W/m2
13:04 65.7 °F 47.5 °F 29.78 in Calm   2 mph 52% 0 in meteobridge W/m2
13:09 65.7 °F 46 °F 29.78 in Calm   5 mph 49% 0 in meteobridge W/m2
13:14 66 °F 44.6 °F 29.77 in East 4 mph 6 mph 46% 0 in meteobridge W/m2
13:19 66.4 °F 46.6 °F 29.77 in ESE 4 mph 6 mph 49% 0 in meteobridge W/m2
13:24 66.4 °F 45.5 °F 29.77 in Calm   2 mph 47% 0 in meteobridge W/m2
13:29 66.6 °F 47.8 °F 29.77 in Calm     51% 0 in meteobridge W/m2
13:34 66.6 °F 46.8 °F 29.77 in West 0.9 mph 3 mph 49% 0 in meteobridge W/m2
13:39 66.6 °F 46.2 °F 29.77 in Calm   5 mph 48% 0 in meteobridge W/m2
13:44 66.7 °F 45.9 °F 29.77 in Calm   6 mph 47% 0 in meteobridge W/m2
13:49 66.7 °F 46.4 °F 29.77 in SE 6 mph 6 mph 48% 0 in meteobridge W/m2
13:54 66.9 °F 44.2 °F 29.77 in SE 2 mph 2 mph 44% 0 in meteobridge W/m2
13:59 67.3 °F 46.4 °F 29.77 in Calm     47% 0 in meteobridge W/m2
14:04 67.3 °F 48.6 °F 29.77 in ENE 4 mph 5 mph 51% 0 in meteobridge W/m2
14:09 67.3 °F 46.4 °F 29.76 in East 2 mph 4 mph 47% 0 in meteobridge W/m2
14:14 67.3 °F 46.4 °F 29.76 in ENE 2 mph 3 mph 47% 0 in meteobridge W/m2
14:19 67.1 °F 45.7 °F 29.76 in Calm   2 mph 46% 0 in meteobridge W/m2
14:24 67.1 °F 47.3 °F 29.76 in NNE 2 mph 7 mph 49% 0 in meteobridge W/m2
14:29 66.9 °F 48.2 °F 29.76 in East 2 mph 4 mph 51% 0 in meteobridge W/m2
14:34 66.9 °F 47.7 °F 29.76 in SSE 4 mph 4 mph 50% 0 in meteobridge W/m2
14:39 66.9 °F 47.1 °F 29.76 in NNE 4.9 mph 5 mph 49% 0 in meteobridge W/m2
14:44 66.9 °F 46 °F 29.75 in Calm     47% 0 in meteobridge W/m2
14:49 66.9 °F 47.7 °F 29.75 in Calm   3 mph 50% 0 in meteobridge W/m2
14:54 66.9 °F 45 °F 29.75 in Calm   5 mph 45% 0 in meteobridge W/m2
14:59 67.5 °F 44.2 °F 29.75 in WNW 2 mph 2 mph 43% 0 in meteobridge W/m2
15:04 67.3 °F 46.4 °F 29.75 in Calm   3 mph 47% 0 in meteobridge W/m2
15:09 67.3 °F 45.9 °F 29.76 in Calm     46% 0 in meteobridge W/m2
15:14 67.1 °F 45 °F 29.76 in North 0.9 mph 1 mph 45% 0 in meteobridge W/m2
15:19 67.1 °F 44.4 °F 29.76 in Calm     44% 0 in meteobridge W/m2
15:24 67.1 °F 41.9 °F 29.76 in Calm   3 mph 40% 0 in meteobridge W/m2
15:29 66.7 °F 42.3 °F 29.76 in Calm   4 mph 41% 0 in meteobridge W/m2
15:34 66.7 °F 43 °F 29.77 in Calm   5 mph 42% 0 in meteobridge W/m2
15:39 66.7 °F 42.3 °F 29.76 in Calm     41% 0 in meteobridge W/m2
15:44 66.6 °F 44.6 °F 29.76 in Calm   10 mph 45% 0 in meteobridge W/m2
15:49 66.2 °F 43.7 °F 29.76 in Calm   9 mph 44% 0 in meteobridge W/m2
15:54 66 °F 44.1 °F 29.76 in Calm   2 mph 45% 0 in meteobridge W/m2
15:59 65.8 °F 43.3 °F 29.77 in Calm   2 mph 44% 0 in meteobridge W/m2
16:04 65.7 °F 43.7 °F 29.77 in Calm   4 mph 45% 0 in meteobridge W/m2
16:09 65.7 °F 43.2 °F 29.77 in ESE 4.9 mph 5 mph 44% 0 in meteobridge W/m2
16:14 65.8 °F 42.1 °F 29.77 in Calm     42% 0 in meteobridge W/m2
16:19 65.7 °F 42.6 °F 29.77 in West 0.9 mph 1 mph 43% 0 in meteobridge W/m2
16:24 65.5 °F 41.7 °F 29.77 in Calm   3 mph 42% 0 in meteobridge W/m2
16:29 65.5 °F 41.7 °F 29.77 in Calm   2 mph 42% 0 in meteobridge W/m2
16:34 65.1 °F 43.3 °F 29.78 in Calm     45% 0 in meteobridge W/m2
16:39 64.9 °F 45.3 °F 29.78 in Calm     49% 0 in meteobridge W/m2
16:44 64.6 °F 42.8 °F 29.78 in Calm   1 mph 45% 0 in meteobridge W/m2
16:49 64.4 °F 44.2 °F 29.78 in Calm   1 mph 48% 0 in meteobridge W/m2
16:54 64 °F 42.8 °F 29.78 in Calm     46% 0 in meteobridge W/m2
16:59 63.9 °F 42.6 °F 29.78 in Calm   1 mph 46% 0 in meteobridge W/m2
17:04 63.9 °F 42.6 °F 29.79 in Calm     46% 0 in meteobridge W/m2
17:09 63.7 °F 43.2 °F 29.79 in Calm     47% 0 in meteobridge W/m2
17:14 63.3 °F 43.9 °F 29.79 in Calm     49% 0 in meteobridge W/m2
17:19 63.1 °F 43.7 °F 29.79 in Calm   1 mph 49% 0 in meteobridge W/m2
17:24 62.8 °F 43.3 °F 29.79 in Calm     49% 0 in meteobridge W/m2
17:29 62.4 °F 44.1 °F 29.79 in Calm     51% 0 in meteobridge W/m2
17:34 61.9 °F 44.1 °F 29.79 in Calm     52% 0 in meteobridge W/m2
17:39 61.3 °F 43.5 °F 29.80 in Calm     52% 0 in meteobridge W/m2
17:44 60.8 °F 44.6 °F 29.80 in Calm     55% 0 in meteobridge W/m2
17:49 60.3 °F 44.1 °F 29.80 in Calm     55% 0 in meteobridge W/m2
17:54 59.7 °F 44.1 °F 29.80 in Calm     56% 0 in meteobridge W/m2
17:59 59.4 °F 44.6 °F 29.80 in Calm     58% 0 in meteobridge W/m2
18:04 58.8 °F 44.1 °F 29.80 in Calm     58% 0 in meteobridge W/m2
18:09 58.3 °F 44.4 °F 29.80 in Calm     60% 0 in meteobridge W/m2
18:14 57.7 °F 44.4 °F 29.81 in Calm     61% 0 in meteobridge W/m2
18:19 57 °F 44.6 °F 29.81 in Calm     63% 0 in meteobridge W/m2
18:24 56.5 °F 45.3 °F 29.81 in Calm     66% 0 in meteobridge W/m2
18:29 55.8 °F 45.3 °F 29.81 in Calm     68% 0 in meteobridge W/m2
18:34 55 °F 45.1 °F 29.81 in Calm     69% 0 in meteobridge W/m2
18:39 54.7 °F 44.8 °F 29.82 in Calm     69% 0 in meteobridge W/m2
18:44 54 °F 44.8 °F 29.82 in Calm     71% 0 in meteobridge W/m2
18:49 53.4 °F 44.6 °F 29.82 in Calm     72% 0 in meteobridge W/m2
18:54 53.1 °F 44.6 °F 29.82 in Calm     73% 0 in meteobridge W/m2
18:59 52.5 °F 44.1 °F 29.82 in Calm     73% 0 in meteobridge W/m2
19:04 52.2 °F 44.1 °F 29.83 in Calm     74% 0 in meteobridge W/m2
19:09 51.8 °F 43.7 °F 29.83 in Calm     74% 0 in meteobridge W/m2
19:14 51.4 °F 43.5 °F 29.83 in Calm     74% 0 in meteobridge W/m2
19:19 51.3 °F 43.3 °F 29.83 in Calm     74% 0 in meteobridge W/m2
19:24 50.9 °F 43 °F 29.83 in Calm     74% 0 in meteobridge W/m2
19:29 50.5 °F 42.6 °F 29.83 in Calm     74% 0 in meteobridge W/m2
19:34 50.4 °F 42.4 °F 29.83 in Calm     74% 0 in meteobridge W/m2
19:39 49.8 °F 41.9 °F 29.84 in Calm     74% 0 in meteobridge W/m2
19:44 49.6 °F 41.7 °F 29.84 in Calm     74% 0 in meteobridge W/m2
19:49 49.5 °F 41.5 °F 29.84 in Calm     74% 0 in meteobridge W/m2
19:54 49.3 °F 41 °F 29.84 in Calm     73% 0 in meteobridge W/m2
19:59 48.9 °F 40.3 °F 29.84 in Calm     72% 0 in meteobridge W/m2
20:04 48.6 °F 39.9 °F 29.84 in Calm     72% 0 in meteobridge W/m2
20:09 48.4 °F 39.4 °F 29.84 in Calm     71% 0 in meteobridge W/m2
20:14 48 °F 39 °F 29.85 in Calm     71% 0 in meteobridge W/m2
20:19 47.8 °F 38.8 °F 29.85 in Calm     71% 0 in meteobridge W/m2
20:24 47.7 °F 38.3 °F 29.85 in Calm     70% 0 in meteobridge W/m2
20:29 47.5 °F 37.8 °F 29.85 in Calm     69% 0 in meteobridge W/m2
20:34 47.3 °F 37.6 °F 29.85 in Calm     69% 0 in meteobridge W/m2
20:39 47.1 °F 37 °F 29.85 in Calm     68% 0 in meteobridge W/m2
20:44 46.9 °F 36.5 °F 29.85 in Calm     67% 0 in meteobridge W/m2
20:49 46.9 °F 36.5 °F 29.86 in Calm     67% 0 in meteobridge W/m2
20:54 46.8 °F 36.3 °F 29.86 in Calm     67% 0 in meteobridge W/m2
20:59 46.6 °F 35.8 °F 29.86 in Calm     66% 0 in meteobridge W/m2
21:04 46.4 °F 35.6 °F 29.86 in Calm     66% 0 in meteobridge W/m2
21:09 46.2 °F 35.1 °F 29.86 in Calm     65% 0 in meteobridge W/m2
21:14 46 °F 34.5 °F 29.86 in Calm     64% 0 in meteobridge W/m2
21:19 45.9 °F 34.3 °F 29.86 in Calm     64% 0 in meteobridge W/m2
21:24 45.9 °F 34.3 °F 29.86 in Calm     64% 0 in meteobridge W/m2
21:29 45.7 °F 33.8 °F 29.86 in Calm     63% 0 in meteobridge W/m2
21:34 45.5 °F 33.3 °F 29.87 in Calm     62% 0 in meteobridge W/m2
21:39 45.3 °F 33.1 °F 29.87 in Calm     62% 0 in meteobridge W/m2
21:44 45.1 °F 32.5 °F 29.87 in Calm     61% 0 in meteobridge W/m2
21:49 45.1 °F 32.5 °F 29.87 in Calm     61% 0 in meteobridge W/m2
21:54 45 °F 32 °F 29.88 in Calm     60% 0 in meteobridge W/m2
21:59 44.8 °F 31.3 °F 29.88 in Calm     59% 0 in meteobridge W/m2
22:04 44.6 °F 31.1 °F 29.88 in Calm     59% 0 in meteobridge W/m2
22:09 44.4 °F 30.9 °F 29.88 in Calm     59% 0 in meteobridge W/m2
22:14 44.4 °F 30.6 °F 29.88 in Calm     58% 0 in meteobridge W/m2
22:19 44.2 °F 30.4 °F 29.88 in Calm     58% 0 in meteobridge W/m2
22:24 44.1 °F 29.8 °F 29.88 in Calm     57% 0 in meteobridge W/m2
22:29 44.1 °F 29.8 °F 29.88 in Calm     57% 0 in meteobridge W/m2
22:34 43.9 °F 29.1 °F 29.88 in Calm     56% 0 in meteobridge W/m2
22:39 43.7 °F 29.1 °F 29.88 in Calm     56% 0 in meteobridge W/m2
22:44 43.5 °F 28.9 °F 29.89 in Calm     56% 0 in meteobridge W/m2
22:49 43.3 °F 28.8 °F 29.89 in Calm     56% 0 in meteobridge W/m2
22:54 43.3 °F 28.2 °F 29.89 in Calm     55% 0 in meteobridge W/m2
22:59 43.2 °F 28 °F 29.89 in Calm     55% 0 in meteobridge W/m2
23:04 43.2 °F 28 °F 29.88 in Calm     55% 0 in meteobridge W/m2
23:09 43 °F 27.9 °F 29.88 in Calm     55% 0 in meteobridge W/m2
23:14 43 °F 27.5 °F 29.88 in Calm     54% 0 in meteobridge W/m2
23:19 42.6 °F 27.1 °F 29.88 in Calm     54% 0 in meteobridge W/m2
23:24 42.6 °F 27.1 °F 29.88 in Calm     54% 0 in meteobridge W/m2
23:29 42.4 °F 27 °F 29.88 in Calm     54% 0 in meteobridge W/m2
23:34 42.3 °F 26.8 °F 29.88 in Calm     54% 0 in meteobridge W/m2
23:39 42.3 °F 26.4 °F 29.88 in Calm     53% 0 in meteobridge W/m2
23:44 42.1 °F 26.2 °F 29.88 in Calm     53% 0 in meteobridge W/m2
23:49 41.9 °F 26.1 °F 29.88 in Calm     53% 0 in meteobridge W/m2
23:54 41.7 °F 25.9 °F 29.89 in Calm     53% 0 in meteobridge W/m2
23:59 41.7 °F 25.3 °F 29.89 in Calm     52% 0 in meteobridge W/m2
EllijayWeather
Compliments of Weather Underground - 2.5 mb